Waterville, Ohio
Current Conditions -  °F | °C
As of 7:52 PM on Monday 24 Nov 2014 (Local Time) from KTOL Reporting Station
Overcast Overcast  
Wind Chill: 23°   Ceiling: 2600
Heat Index: 36°   Visibility: 10mi
Dew Point: 26°   Wind: 32mph
Humidity: 67%   Direction: 230°SW
Pressure: 29.67"   Gusts: 47mph
Location:  41.5°N, 83.72°W
Report Text: KTOL 250052Z 23028G41KT 10SM OVC026 02/M03 A2967 RMK AO2 PK WND 24046/0014 SLP048 T00221033
Loading
Personal Weather Stations






























Interactive Weather Map New forecast layout! Learn more

10-Day Weather Forecast

Advertisements
Track Severe Weather on mobile